sensor_id;sensor_type;location;lat;lon;timestamp;P1;durP1;ratioP1;P2;durP2;ratioP2
22863;SDS011;11599;49.882;8.680;2022-12-18T00:08:19;41.80;;;13.07;;
22863;SDS011;11599;49.882;8.680;2022-12-18T00:18:41;44.90;;;13.83;;
22863;SDS011;11599;49.882;8.680;2022-12-18T00:29:05;40.43;;;13.87;;
22863;SDS011;11599;49.882;8.680;2022-12-18T00:39:26;50.40;;;16.13;;
22863;SDS011;11599;49.882;8.680;2022-12-18T00:49:49;40.40;;;14.33;;
22863;SDS011;11599;49.882;8.680;2022-12-18T01:00:11;50.20;;;15.27;;
22863;SDS011;11599;49.882;8.680;2022-12-18T01:10:44;44.03;;;14.13;;
22863;SDS011;11599;49.882;8.680;2022-12-18T01:21:06;44.90;;;14.43;;
22863;SDS011;11599;49.882;8.680;2022-12-18T01:31:38;47.47;;;14.73;;
22863;SDS011;11599;49.882;8.680;2022-12-18T01:42:03;46.90;;;14.80;;
22863;SDS011;11599;49.882;8.680;2022-12-18T01:52:27;41.03;;;14.13;;
22863;SDS011;11599;49.882;8.680;2022-12-18T02:02:49;38.77;;;12.80;;
22863;SDS011;11599;49.882;8.680;2022-12-18T02:13:19;49.73;;;14.63;;
22863;SDS011;11599;49.882;8.680;2022-12-18T02:23:45;41.33;;;14.27;;
22863;SDS011;11599;49.882;8.680;2022-12-18T02:34:11;35.37;;;12.33;;
22863;SDS011;11599;49.882;8.680;2022-12-18T02:44:34;44.20;;;13.83;;
22863;SDS011;11599;49.882;8.680;2022-12-18T02:55:03;44.17;;;14.73;;
22863;SDS011;11599;49.882;8.680;2022-12-18T03:05:30;46.93;;;13.73;;
22863;SDS011;11599;49.882;8.680;2022-12-18T03:15:53;39.30;;;13.40;;
22863;SDS011;11599;49.882;8.680;2022-12-18T03:26:18;38.53;;;13.57;;
22863;SDS011;11599;49.882;8.680;2022-12-18T03:36:44;39.80;;;13.63;;
22863;SDS011;11599;49.882;8.680;2022-12-18T03:47:07;38.57;;;12.97;;
22863;SDS011;11599;49.882;8.680;2022-12-18T03:57:32;35.20;;;13.00;;
22863;SDS011;11599;49.882;8.680;2022-12-18T04:07:57;45.73;;;12.67;;
22863;SDS011;11599;49.882;8.680;2022-12-18T04:18:20;38.70;;;12.50;;
22863;SDS011;11599;49.882;8.680;2022-12-18T04:28:42;42.87;;;12.27;;
22863;SDS011;11599;49.882;8.680;2022-12-18T04:39:05;35.33;;;12.73;;
22863;SDS011;11599;49.882;8.680;2022-12-18T04:49:27;40.50;;;13.17;;
22863;SDS011;11599;49.882;8.680;2022-12-18T04:59:50;34.40;;;12.30;;
22863;SDS011;11599;49.882;8.680;2022-12-18T05:10:11;37.07;;;12.40;;
22863;SDS011;11599;49.882;8.680;2022-12-18T05:20:34;32.43;;;10.73;;
22863;SDS011;11599;49.882;8.680;2022-12-18T05:30:56;37.97;;;12.73;;
22863;SDS011;11599;49.882;8.680;2022-12-18T05:41:19;39.70;;;12.33;;
22863;SDS011;11599;49.882;8.680;2022-12-18T05:51:41;40.10;;;12.73;;
22863;SDS011;11599;49.882;8.680;2022-12-18T06:02:04;36.30;;;12.07;;
22863;SDS011;11599;49.882;8.680;2022-12-18T06:12:25;37.53;;;12.17;;
22863;SDS011;11599;49.882;8.680;2022-12-18T06:22:48;38.57;;;12.87;;
22863;SDS011;11599;49.882;8.680;2022-12-18T06:33:09;40.80;;;12.00;;
22863;SDS011;11599;49.882;8.680;2022-12-18T06:43:32;39.33;;;12.03;;
22863;SDS011;11599;49.882;8.680;2022-12-18T06:53:53;36.40;;;13.17;;
22863;SDS011;11599;49.882;8.680;2022-12-18T07:04:16;39.00;;;12.40;;
22863;SDS011;11599;49.882;8.680;2022-12-18T07:14:38;36.67;;;11.77;;
22863;SDS011;11599;49.882;8.680;2022-12-18T07:25:01;35.97;;;11.03;;
22863;SDS011;11599;49.882;8.680;2022-12-18T07:35:28;35.20;;;12.57;;
22863;SDS011;11599;49.882;8.680;2022-12-18T07:46:06;37.17;;;12.63;;
22863;SDS011;11599;49.882;8.680;2022-12-18T07:56:39;38.30;;;12.13;;
22863;SDS011;11599;49.882;8.680;2022-12-18T08:07:02;38.53;;;13.00;;
22863;SDS011;11599;49.882;8.680;2022-12-18T08:17:27;40.20;;;14.23;;
22863;SDS011;11599;49.882;8.680;2022-12-18T08:28:05;40.73;;;13.43;;
22863;SDS011;11599;49.882;8.680;2022-12-18T10:21:30;49.03;;;18.57;;
22863;SDS011;11599;49.882;8.680;2022-12-18T10:32:25;45.70;;;19.27;;
22863;SDS011;11599;49.882;8.680;2022-12-18T10:43:10;43.87;;;19.83;;
22863;SDS011;11599;49.882;8.680;2022-12-18T11:15:47;40.13;;;16.80;;
22863;SDS011;11599;49.882;8.680;2022-12-18T11:26:08;46.33;;;18.03;;
22863;SDS011;11599;49.882;8.680;2022-12-18T11:36:38;45.63;;;18.70;;
22863;SDS011;11599;49.882;8.680;2022-12-18T11:47:16;47.90;;;17.80;;
22863;SDS011;11599;49.882;8.680;2022-12-18T11:57:45;51.73;;;18.27;;
22863;SDS011;11599;49.882;8.680;2022-12-18T12:08:10;48.53;;;17.50;;
22863;SDS011;11599;49.882;8.680;2022-12-18T12:18:38;47.60;;;18.03;;
22863;SDS011;11599;49.882;8.680;2022-12-18T12:29:09;48.37;;;17.63;;
22863;SDS011;11599;49.882;8.680;2022-12-18T12:39:36;48.83;;;16.60;;
22863;SDS011;11599;49.882;8.680;2022-12-18T12:49:58;48.37;;;15.97;;
22863;SDS011;11599;49.882;8.680;2022-12-18T13:00:24;50.43;;;16.93;;
22863;SDS011;11599;49.882;8.680;2022-12-18T13:10:49;56.03;;;17.00;;
22863;SDS011;11599;49.882;8.680;2022-12-18T13:21:34;56.87;;;17.70;;
22863;SDS011;11599;49.882;8.680;2022-12-18T13:31:59;52.97;;;17.17;;
22863;SDS011;11599;49.882;8.680;2022-12-18T13:42:38;52.30;;;16.27;;
22863;SDS011;11599;49.882;8.680;2022-12-18T13:53:19;39.60;;;14.47;;
22863;SDS011;11599;49.882;8.680;2022-12-18T14:03:43;56.30;;;15.43;;
22863;SDS011;11599;49.882;8.680;2022-12-18T14:14:04;42.73;;;14.13;;
22863;SDS011;11599;49.882;8.680;2022-12-18T14:24:28;48.83;;;15.63;;
22863;SDS011;11599;49.882;8.680;2022-12-18T14:34:51;47.10;;;14.83;;
22863;SDS011;11599;49.882;8.680;2022-12-18T14:45:34;44.77;;;14.53;;
22863;SDS011;11599;49.882;8.680;2022-12-18T14:55:56;44.77;;;13.10;;
22863;SDS011;11599;49.882;8.680;2022-12-18T15:06:21;46.80;;;14.37;;
22863;SDS011;11599;49.882;8.680;2022-12-18T15:16:49;45.93;;;14.03;;
22863;SDS011;11599;49.882;8.680;2022-12-18T15:27:20;44.13;;;13.57;;
22863;SDS011;11599;49.882;8.680;2022-12-18T15:37:42;43.30;;;13.70;;
22863;SDS011;11599;49.882;8.680;2022-12-18T15:48:08;48.67;;;14.63;;
22863;SDS011;11599;49.882;8.680;2022-12-18T15:58:31;48.93;;;14.80;;
22863;SDS011;11599;49.882;8.680;2022-12-18T16:08:54;46.77;;;14.07;;
22863;SDS011;11599;49.882;8.680;2022-12-18T16:19:15;45.60;;;13.70;;
22863;SDS011;11599;49.882;8.680;2022-12-18T16:29:38;45.77;;;13.87;;
22863;SDS011;11599;49.882;8.680;2022-12-18T16:40:00;45.07;;;14.30;;
22863;SDS011;11599;49.882;8.680;2022-12-18T16:50:23;49.17;;;14.37;;
22863;SDS011;11599;49.882;8.680;2022-12-18T17:00:46;43.77;;;13.80;;
22863;SDS011;11599;49.882;8.680;2022-12-18T17:11:09;46.83;;;14.83;;
22863;SDS011;11599;49.882;8.680;2022-12-18T17:21:31;48.70;;;15.07;;
22863;SDS011;11599;49.882;8.680;2022-12-18T17:31:53;51.20;;;15.73;;
22863;SDS011;11599;49.882;8.680;2022-12-18T17:42:15;51.87;;;16.67;;
22863;SDS011;11599;49.882;8.680;2022-12-18T17:52:38;46.63;;;15.30;;
22863;SDS011;11599;49.882;8.680;2022-12-18T18:03:03;48.83;;;15.03;;
22863;SDS011;11599;49.882;8.680;2022-12-18T18:35:50;51.40;;;15.70;;
22863;SDS011;11599;49.882;8.680;2022-12-18T18:46:34;42.77;;;16.00;;
22863;SDS011;11599;49.882;8.680;2022-12-18T18:57:00;56.47;;;16.53;;
22863;SDS011;11599;49.882;8.680;2022-12-18T19:07:24;50.97;;;16.47;;
22863;SDS011;11599;49.882;8.680;2022-12-18T19:17:48;54.70;;;16.90;;
22863;SDS011;11599;49.882;8.680;2022-12-18T19:28:12;49.47;;;16.30;;
22863;SDS011;11599;49.882;8.680;2022-12-18T19:38:37;50.17;;;15.77;;
22863;SDS011;11599;49.882;8.680;2022-12-18T19:49:03;43.77;;;15.10;;
22863;SDS011;11599;49.882;8.680;2022-12-18T19:59:41;47.43;;;14.97;;
22863;SDS011;11599;49.882;8.680;2022-12-18T20:10:04;44.13;;;14.60;;
22863;SDS011;11599;49.882;8.680;2022-12-18T20:20:31;48.93;;;15.43;;
22863;SDS011;11599;49.882;8.680;2022-12-18T20:31:45;49.10;;;15.33;;
22863;SDS011;11599;49.882;8.680;2022-12-18T20:42:20;49.13;;;16.90;;
22863;SDS011;11599;49.882;8.680;2022-12-18T20:52:47;45.73;;;14.40;;
22863;SDS011;11599;49.882;8.680;2022-12-18T21:03:12;43.77;;;14.00;;
22863;SDS011;11599;49.882;8.680;2022-12-18T22:08:11;43.10;;;14.53;;
22863;SDS011;11599;49.882;8.680;2022-12-18T22:18:50;46.37;;;15.20;;
22863;SDS011;11599;49.882;8.680;2022-12-18T22:29:13;39.97;;;14.50;;
22863;SDS011;11599;49.882;8.680;2022-12-18T22:39:56;45.30;;;15.07;;
22863;SDS011;11599;49.882;8.680;2022-12-18T22:50:19;42.70;;;14.13;;
22863;SDS011;11599;49.882;8.680;2022-12-18T23:00:47;44.90;;;15.20;;
22863;SDS011;11599;49.882;8.680;2022-12-18T23:11:12;45.57;;;15.17;;
22863;SDS011;11599;49.882;8.680;2022-12-18T23:21:34;52.23;;;16.40;;
22863;SDS011;11599;49.882;8.680;2022-12-18T23:31:57;44.73;;;15.43;;
22863;SDS011;11599;49.882;8.680;2022-12-18T23:42:19;49.90;;;16.60;;
22863;SDS011;11599;49.882;8.680;2022-12-18T23:52:42;43.13;;;15.87;;
